Time;durP1;ratioP1;P1;durP2;ratioP2;P2;SDS_P1;SDS_P2;PMS_P1;PMS_P2;Temp;Humidity;BMP_temperature;BMP_pressure;BME280_temperature;BME280_humidity;BME280_pressure;Samples;Min_cycle;Max_cycle;Signal;HPM_P1;HPM_P2
2022/12/19 00:00:21;;;;;;;45.20;28.50;;;;;;;;;;5113975;27;20417;-81
2022/12/19 00:02:47;;;;;;;44.33;26.92;;;;;;;;;;5099263;27;20754;-81
2022/12/19 00:05:13;;;;;;;47.03;27.57;;;;;;;;;;5097416;27;20416;-81
2022/12/19 00:07:39;;;;;;;43.75;26.48;;;;;;;;;;5110755;27;20447;-81
2022/12/19 00:10:06;;;;;;;43.13;27.38;;;;;;;;;;5099328;28;20767;-74
2022/12/19 00:12:32;;;;;;;47.40;27.63;;;;;;;;;;5086603;27;20831;-74
2022/12/19 00:14:58;;;;;;;46.72;28.90;;;;;;;;;;5098241;27;20414;-74
2022/12/19 00:17:24;;;;;;;46.90;29.25;;;;;;;;;;5095283;27;20400;-73
2022/12/19 00:19:51;;;;;;;42.67;26.30;;;;;;;;;;5104770;27;20422;-73
2022/12/19 00:22:17;;;;;;;47.70;28.23;;;;;;;;;;5090878;27;20784;-74
2022/12/19 00:24:43;;;;;;;45.35;27.95;;;;;;;;;;5115559;27;20390;-73
2022/12/19 00:27:09;;;;;;;47.75;27.90;;;;;;;;;;5098462;27;20407;-73
2022/12/19 00:29:35;;;;;;;46.90;29.27;;;;;;;;;;5100765;27;20930;-81
2022/12/19 00:32:01;;;;;;;47.55;27.98;;;;;;;;;;5092849;28;20519;-81
2022/12/19 00:34:27;;;;;;;45.22;26.70;;;;;;;;;;5105088;27;20498;-82
2022/12/19 00:36:53;;;;;;;45.70;27.77;;;;;;;;;;5082939;27;20425;-81
2022/12/19 00:39:19;;;;;;;44.30;27.63;;;;;;;;;;5107426;28;20415;-81
2022/12/19 00:41:45;;;;;;;44.25;26.88;;;;;;;;;;5098138;27;20921;-81
2022/12/19 00:44:13;;;;;;;44.72;26.30;;;;;;;;;;5105825;27;20409;-81
2022/12/19 00:46:39;;;;;;;47.03;27.60;;;;;;;;;;5101763;27;20949;-82
2022/12/19 00:49:05;;;;;;;48.85;28.27;;;;;;;;;;5097179;27;20420;-74
2022/12/19 00:51:33;;;;;;;46.78;27.50;;;;;;;;;;5082609;27;20415;-74
2022/12/19 00:53:59;;;;;;;43.53;27.92;;;;;;;;;;5095882;27;20406;-74
2022/12/19 00:56:26;;;;;;;50.47;27.67;;;;;;;;;;5115282;27;20409;-74
2022/12/19 00:58:52;;;;;;;45.07;26.90;;;;;;;;;;5101207;28;20423;-73
2022/12/19 01:01:20;;;;;;;48.17;29.15;;;;;;;;;;5082924;27;20432;-73
2022/12/19 01:03:46;;;;;;;47.20;29.02;;;;;;;;;;5097273;27;20504;-73
2022/12/19 01:06:12;;;;;;;45.70;26.35;;;;;;;;;;5111189;27;20925;-72
2022/12/19 01:08:39;;;;;;;48.47;28.13;;;;;;;;;;5077783;28;20505;-73
2022/12/19 01:11:05;;;;;;;47.22;27.95;;;;;;;;;;5077445;28;20431;-73
2022/12/19 01:13:32;;;;;;;50.80;27.10;;;;;;;;;;5094710;27;20913;-72
2022/12/19 01:16:02;;;;;;;47.07;27.93;;;;;;;;;;5094959;27;20502;-73
2022/12/19 01:18:28;;;;;;;46.75;27.25;;;;;;;;;;5098042;27;20455;-73
2022/12/19 01:20:54;;;;;;;46.90;26.85;;;;;;;;;;5113816;27;20406;-73
2022/12/19 01:23:20;;;;;;;47.65;28.13;;;;;;;;;;5096365;28;20412;-73
2022/12/19 01:25:51;;;;;;;45.15;26.90;;;;;;;;;;5077707;28;20401;-73
2022/12/19 01:28:17;;;;;;;48.28;28.55;;;;;;;;;;5094220;27;20447;-73
2022/12/19 01:30:44;;;;;;;47.50;28.15;;;;;;;;;;5112195;27;20418;-73
2022/12/19 01:33:11;;;;;;;46.03;27.63;;;;;;;;;;5096356;27;20426;-81
2022/12/19 01:35:37;;;;;;;48.47;28.13;;;;;;;;;;5079439;28;20515;-80
2022/12/19 01:38:03;;;;;;;45.58;27.67;;;;;;;;;;5112514;27;20410;-81
2022/12/19 01:40:30;;;;;;;47.53;27.03;;;;;;;;;;5100393;27;20842;-81
2022/12/19 01:42:56;;;;;;;46.75;27.95;;;;;;;;;;5088179;27;20901;-81
2022/12/19 01:45:32;;;;;;;46.28;26.65;;;;;;;;;;5068746;27;20497;-81
2022/12/19 01:48:07;;;;;;;42.72;27.63;;;;;;;;;;5131691;27;20414;-80
2022/12/19 01:50:38;;;;;;;45.80;27.75;;;;;;;;;;5097726;28;22211;-80
2022/12/19 01:53:07;;;;;;;46.45;28.05;;;;;;;;;;5076504;28;20499;-81
2022/12/19 01:55:33;;;;;;;49.42;28.73;;;;;;;;;;5080925;27;20406;-82
2022/12/19 01:58:00;;;;;;;49.75;30.30;;;;;;;;;;5110775;28;20418;-82
2022/12/19 02:00:26;;;;;;;57.22;32.38;;;;;;;;;;5096641;27;20414;-81
2022/12/19 02:02:53;;;;;;;58.58;32.85;;;;;;;;;;5092928;27;20499;-74
2022/12/19 02:05:20;;;;;;;59.35;33.42;;;;;;;;;;5105273;27;20414;-74
2022/12/19 02:07:46;;;;;;;58.88;33.70;;;;;;;;;;5113231;27;20418;-74
2022/12/19 02:10:12;;;;;;;62.13;34.67;;;;;;;;;;5100392;28;20423;-74
2022/12/19 02:12:41;;;;;;;62.72;37.63;;;;;;;;;;5102724;28;20923;-73
2022/12/19 02:15:07;;;;;;;64.93;34.90;;;;;;;;;;5109460;28;20469;-74
2022/12/19 02:17:43;;;;;;;64.82;35.35;;;;;;;;;;5088110;28;20818;-74
2022/12/19 02:20:24;;;;;;;66.65;36.55;;;;;;;;;;5113858;28;20422;-74
2022/12/19 02:23:08;;;;;;;74.60;36.22;;;;;;;;;;5113967;28;20459;-74
2022/12/19 02:25:38;;;;;;;69.15;38.42;;;;;;;;;;5098976;28;20428;-74
2022/12/19 02:28:16;;;;;;;67.40;37.00;;;;;;;;;;5108354;28;20851;-74
2022/12/19 02:30:42;;;;;;;72.72;37.17;;;;;;;;;;5091519;28;20419;-74
2022/12/19 02:33:09;;;;;;;67.35;35.88;;;;;;;;;;5109897;28;20392;-73
2022/12/19 02:35:55;;;;;;;70.72;36.25;;;;;;;;;;5086961;28;20441;-74
2022/12/19 02:38:28;;;;;;;75.63;39.22;;;;;;;;;;5076921;28;20416;-73
2022/12/19 02:41:03;;;;;;;71.90;38.37;;;;;;;;;;5095156;28;20421;-74
2022/12/19 02:43:30;;;;;;;75.70;40.35;;;;;;;;;;5107995;28;20414;-74
2022/12/19 02:45:57;;;;;;;79.40;37.95;;;;;;;;;;5108975;28;20484;-74
2022/12/19 02:48:23;;;;;;;80.40;38.53;;;;;;;;;;5113043;28;20414;-74
2022/12/19 02:50:49;;;;;;;75.80;36.75;;;;;;;;;;5110266;28;20414;-74
2022/12/19 02:53:16;;;;;;;77.43;40.67;;;;;;;;;;5096303;28;20416;-74
2022/12/19 02:55:45;;;;;;;77.13;39.72;;;;;;;;;;5109734;28;20497;-74
2022/12/19 02:58:21;;;;;;;78.63;37.90;;;;;;;;;;5094503;28;20910;-75
2022/12/19 03:01:08;;;;;;;80.87;38.33;;;;;;;;;;5104587;28;20418;-74
2022/12/19 03:03:53;;;;;;;74.13;40.50;;;;;;;;;;5112550;27;20403;-74
2022/12/19 03:06:25;;;;;;;84.03;42.80;;;;;;;;;;5115440;27;20414;-80
2022/12/19 03:08:52;;;;;;;91.57;42.67;;;;;;;;;;5097613;27;20399;-80
2022/12/19 03:11:21;;;;;;;95.25;42.20;;;;;;;;;;5098220;27;20451;-80
2022/12/19 03:13:51;;;;;;;90.45;40.88;;;;;;;;;;5113576;27;20439;-80
2022/12/19 03:16:17;;;;;;;97.97;43.63;;;;;;;;;;5095264;27;20418;-80
2022/12/19 03:18:43;;;;;;;89.60;42.70;;;;;;;;;;5117365;27;20422;-79
2022/12/19 03:21:12;;;;;;;91.40;43.50;;;;;;;;;;5113658;27;20425;-80
2022/12/19 03:23:39;;;;;;;158.73;47.92;;;;;;;;;;5096412;27;20974;-79
2022/12/19 03:26:17;;;;;;;94.82;43.72;;;;;;;;;;5115760;27;20409;-74
2022/12/19 03:28:43;;;;;;;102.85;47.05;;;;;;;;;;5100986;27;20406;-74
2022/12/19 03:31:10;;;;;;;107.53;47.58;;;;;;;;;;5116939;27;20456;-74
2022/12/19 03:33:38;;;;;;;101.07;49.05;;;;;;;;;;5116909;27;20406;-74
2022/12/19 03:36:07;;;;;;;101.75;46.53;;;;;;;;;;5113527;27;20796;-74
2022/12/19 03:38:34;;;;;;;125.40;48.53;;;;;;;;;;5083450;27;20946;-79
2022/12/19 03:41:02;;;;;;;102.50;47.58;;;;;;;;;;5107293;27;20818;-80
2022/12/19 03:43:28;;;;;;;102.40;45.47;;;;;;;;;;5114894;27;20918;-79
2022/12/19 03:46:01;;;;;;;99.25;46.30;;;;;;;;;;5115779;27;20438;-80
2022/12/19 03:48:46;;;;;;;97.75;44.28;;;;;;;;;;5112080;27;20493;-80
2022/12/19 03:51:12;;;;;;;120.03;47.23;;;;;;;;;;5115205;27;20419;-79
2022/12/19 03:54:10;;;;;;;93.95;43.35;;;2.60;99.90;;;;;;5115644;27;20454;-79
2022/12/19 03:56:48;;;;;;;89.90;43.05;;;;;;;;;;5079539;28;20396;-79
2022/12/19 03:59:14;;;;;;;91.65;42.25;;;;;;;;;;5102092;27;20426;-79
2022/12/19 04:01:40;;;;;;;83.13;41.80;;;;;;;;;;5098785;27;20407;-79
2022/12/19 04:04:07;;;;;;;86.33;40.73;;;;;;;;;;5079519;28;20515;-80
2022/12/19 04:06:34;;;;;;;113.35;45.10;;;;;;;;;;5114984;27;20948;-73
2022/12/19 04:09:00;;;;;;;82.10;40.90;;;;;;;;;;5078799;28;20473;-73
2022/12/19 04:11:29;;;;;;;80.03;41.83;;;;;;;;;;5115395;27;20455;-73
2022/12/19 04:13:59;;;;;;;88.33;41.57;;;;;;;;;;5114940;27;21025;-73
2022/12/19 04:16:28;;;;;;;74.68;43.70;;;;;;;;;;5084838;28;20473;-74
2022/12/19 04:19:02;;;;;;;81.53;40.67;;;;;;;;;;5108672;27;20427;-80
2022/12/19 04:21:31;;;;;;;203.48;50.72;;;;;;;;;;5099345;27;20405;-80
2022/12/19 04:24:01;;;;;;;81.90;42.05;;;;;;;;;;5095032;27;20421;-80
2022/12/19 04:26:28;;;;;;;78.10;40.35;;;;;;;;;;5095382;28;20399;-80
2022/12/19 04:28:55;;;;;;;74.10;38.40;;;;;;;;;;5076268;27;20909;-80
2022/12/19 04:31:22;;;;;;;82.20;40.53;;;;;;;;;;5095934;27;20469;-80
2022/12/19 04:33:48;;;;;;;74.03;40.70;;;;;;;;;;5111801;27;20420;-80
2022/12/19 04:36:14;;;;;;;78.30;40.30;;;;;;;;;;5087089;28;20484;-80
2022/12/19 04:38:41;;;;;;;81.18;42.00;;;;;;;;;;5108389;27;20419;-80
2022/12/19 04:41:07;;;;;;;80.88;41.78;;;;;;;;;;5095948;28;20427;-79
2022/12/19 04:43:33;;;;;;;98.27;42.77;;;;;;;;;;5101261;27;20865;-79
2022/12/19 04:45:59;;;;;;;80.68;41.15;;;;;;;;;;5078673;27;20410;-80
2022/12/19 04:48:25;;;;;;;80.20;40.67;;;;;;;;;;5078158;28;20420;-74
2022/12/19 04:50:51;;;;;;;81.35;43.78;;;;;;;;;;5095850;27;20412;-74
2022/12/19 04:53:17;;;;;;;76.50;41.58;;;;;;;;;;5114418;27;20415;-74
2022/12/19 04:55:43;;;;;;;82.00;41.00;;;;;;;;;;5111181;27;20917;-74
2022/12/19 04:58:09;;;;;;;84.15;41.15;;;;;;;;;;5089483;28;20517;-74
2022/12/19 05:00:35;;;;;;;71.90;40.42;;;;;;;;;;5111458;28;20423;-74
2022/12/19 05:03:02;;;;;;;89.07;40.78;;;;;;;;;;5086985;27;20497;-74
2022/12/19 05:05:28;;;;;;;79.72;42.63;;;;;;;;;;5114493;27;20410;-74
2022/12/19 05:07:57;;;;;;;75.07;39.35;;;;;;;;;;5114105;27;20410;-73
2022/12/19 05:10:23;;;;;;;81.63;38.83;;;;;;;;;;5113058;27;20442;-73
2022/12/19 05:12:49;;;;;;;81.82;40.75;;;;;;;;;;5084615;27;20416;-73
2022/12/19 05:15:16;;;;;;;80.67;41.17;;;;;;;;;;5080322;27;20471;-73
2022/12/19 05:17:42;;;;;;;76.93;38.92;;;;;;;;;;5079236;27;20422;-73
2022/12/19 05:20:08;;;;;;;80.47;39.37;;;;;;;;;;5089003;28;20430;-74
2022/12/19 05:22:34;;;;;;;84.97;42.40;;;;;;;;;;5078882;27;20455;-75
2022/12/19 05:25:00;;;;;;;84.97;41.80;;;;;;;;;;5078155;27;20409;-73
2022/12/19 05:27:26;;;;;;;86.82;40.85;;;;;;;;;;5098957;28;20420;-73
2022/12/19 05:29:52;;;;;;;80.70;41.60;;;;;;;;;;5109818;27;20411;-73
2022/12/19 05:32:18;;;;;;;84.00;44.15;;;;;;;;;;5077013;27;20431;-73
2022/12/19 05:34:45;;;;;;;75.63;40.43;;;;;;;;;;5105635;27;20600;-73
2022/12/19 05:37:11;;;;;;;69.90;36.17;;;;;;;;;;5077965;27;20404;-73
2022/12/19 05:39:37;;;;;;;82.32;40.25;;;;;;;;;;5069030;27;20434;-73
2022/12/19 05:42:03;;;;;;;74.72;38.90;;;;;;;;;;5097516;27;20897;-73
2022/12/19 05:44:29;;;;;;;72.55;36.83;;;;;;;;;;5080685;27;20412;-73
2022/12/19 05:46:55;;;;;;;66.40;35.28;;;;;;;;;;5070275;28;20450;-74
2022/12/19 05:49:21;;;;;;;65.78;35.55;;;;;;;;;;5096431;28;20930;-73
2022/12/19 05:51:47;;;;;;;108.73;40.50;;;;;;;;;;5113395;27;20418;-74
2022/12/19 05:54:13;;;;;;;132.40;39.33;;;;;;;;;;5084105;28;20915;-73
2022/12/19 05:56:39;;;;;;;66.10;32.72;;;;;;;;;;5104671;27;20418;-74
2022/12/19 05:59:05;;;;;;;73.30;36.53;;;;;;;;;;5097854;27;20429;-73
2022/12/19 06:01:31;;;;;;;69.90;35.35;;;;;;;;;;5115080;27;20469;-74
2022/12/19 06:03:57;;;;;;;122.53;36.97;;;;;;;;;;5084279;27;20414;-74
2022/12/19 06:06:25;;;;;;;165.30;39.97;;;;;;;;;;5091202;27;20445;-74
2022/12/19 06:08:55;;;;;;;63.55;32.20;;;;;;;;;;5086080;28;20502;-74
2022/12/19 06:11:21;;;;;;;115.38;35.47;;;;;;;;;;5094134;28;20489;-74
2022/12/19 06:13:47;;;;;;;147.10;36.97;;;;;;;;;;5086052;28;20418;-73
2022/12/19 06:16:15;;;;;;;125.03;35.05;;;;;;;;;;5078669;28;20410;-74
2022/12/19 06:18:41;;;;;;;104.30;31.83;;;;;;;;;;5112380;28;20774;-74
2022/12/19 06:21:10;;;;;;;75.60;30.35;;;;;;;;;;5087760;28;20956;-74
2022/12/19 06:23:36;;;;;;;231.10;41.00;;;;;;;;;;5113030;28;20422;-75
2022/12/19 06:26:03;;;;;;;59.63;28.80;;;;;;;;;;5110561;28;20921;-75
2022/12/19 06:28:30;;;;;;;81.22;28.88;;;;;;;;;;5112094;28;20909;-75
2022/12/19 06:30:57;;;;;;;79.43;27.95;;;;;;;;;;5094493;28;20906;-74
2022/12/19 06:33:23;;;;;;;47.35;26.55;;;;;;;;;;5084263;28;20408;-74
2022/12/19 06:35:56;;;;;;;59.20;26.13;;;;;;;;;;5109844;28;20426;-75
2022/12/19 06:38:22;;;;;;;78.20;27.35;;;;;;;;;;5094315;28;20448;-75
2022/12/19 06:43:33;;;;;;;47.92;26.25;;;;;;;;;;5105228;27;20414;-75
2022/12/19 06:45:59;;;;;;;48.03;26.15;;;;;;;;;;5111726;27;20494;-82
2022/12/19 06:48:27;;;;;;;95.17;29.03;;;;;;;;;;5087506;27;20414;-81
2022/12/19 06:50:53;;;;;;;65.45;27.88;;;;;;;;;;5098277;27;20410;-81
2022/12/19 06:53:19;;;;;;;51.67;26.45;;;;;;;;;;5095873;28;20408;-81
2022/12/19 06:55:45;;;;;;;43.55;24.95;;;;;;;;;;5100531;28;20415;-82
2022/12/19 06:58:11;;;;;;;50.83;27.42;;;;;;;;;;5097216;28;20412;-82
2022/12/19 07:00:37;;;;;;;144.60;31.75;;;;;;;;;;5081645;27;20422;-81
2022/12/19 07:03:05;;;;;;;52.97;26.37;;;;;;;;;;5099724;27;20401;-81
2022/12/19 07:05:31;;;;;;;46.20;27.05;;;;;;;;;;5106435;27;20410;-81
2022/12/19 07:07:57;;;;;;;45.30;26.40;;;;;;;;;;5085775;28;20534;-81
2022/12/19 07:10:23;;;;;;;47.42;25.92;;;;;;;;;;5115248;27;20981;-75
2022/12/19 07:12:49;;;;;;;169.82;36.08;;;;;;;;;;5096454;27;20421;-75
2022/12/19 07:15:16;;;;;;;44.75;24.45;;;;;;;;;;5110920;27;20428;-75
2022/12/19 07:17:42;;;;;;;43.90;26.75;;;;;;;;;;5099214;27;20421;-75
2022/12/19 07:20:08;;;;;;;43.70;26.73;;;;;;;;;;5090815;28;20408;-75
2022/12/19 07:22:35;;;;;;;48.37;25.43;;;;;;;;;;5073156;27;20497;-75
2022/12/19 07:25:02;;;;;;;307.77;43.35;;;;;;;;;;5083667;28;20447;-75
2022/12/19 07:27:28;;;;;;;46.33;25.33;;;;;;;;;;5080113;27;20416;-75
2022/12/19 07:29:54;;;;;;;47.88;25.52;;;;;;;;;;5111185;27;20423;-75
2022/12/19 07:32:21;;;;;;;40.33;24.50;;;;;;;;;;5097778;27;20414;-75
2022/12/19 07:34:47;;;;;;;42.20;24.47;;;;;;;;;;5086622;27;20514;-75
2022/12/19 07:37:13;;;;;;;88.03;25.30;;;;;;;;;;5104906;28;20531;-76
2022/12/19 07:39:39;;;;;;;39.70;22.30;;;;;;;;;;5078350;28;20966;-75
2022/12/19 07:42:05;;;;;;;43.70;24.70;;;;;;;;;;5108012;28;20416;-76
2022/12/19 07:44:31;;;;;;;38.20;22.88;;;;;;;;;;5080539;28;20894;-76
2022/12/19 07:46:57;;;;;;;34.47;21.43;;;;;;;;;;5104252;27;20414;-76
2022/12/19 07:49:23;;;;;;;41.47;22.08;;;;;;;;;;5108235;28;20419;-75
2022/12/19 07:51:50;;;;;;;39.35;22.65;;;;;;;;;;5077983;28;20428;-75
2022/12/19 07:54:16;;;;;;;36.97;22.80;;;;;;;;;;5083539;27;20432;-75
2022/12/19 07:56:42;;;;;;;42.20;22.65;;;;;;;;;;5092679;28;20507;-75
2022/12/19 07:59:08;;;;;;;43.90;24.67;;;;;;;;;;5092733;27;20433;-75
2022/12/19 08:01:34;;;;;;;37.75;23.10;;;;;;;;;;5104126;27;20467;-82
2022/12/19 08:04:00;;;;;;;83.90;25.52;;;;;;;;;;5086405;27;20498;-82
2022/12/19 08:06:26;;;;;;;32.83;21.75;;;;;;;;;;5098748;27;20442;-81
2022/12/19 08:08:52;;;;;;;37.80;22.73;;;;;;;;;;5112995;27;20415;-81
2022/12/19 08:11:26;;;;;;;38.07;21.90;;;;;;;;;;5080069;27;20880;-81
2022/12/19 08:13:52;;;;;;;39.28;22.63;;;;;;;;;;5109803;27;20483;-82
2022/12/19 08:16:19;;;;;;;30.90;20.70;;;;;;;;;;5090553;28;20519;-82
2022/12/19 08:18:46;;;;;;;35.00;20.80;;;;;;;;;;5099714;27;20463;-82
2022/12/19 08:21:13;;;;;;;107.45;28.10;;;;;;;;;;5078449;28;20931;-83
2022/12/19 08:23:39;;;;;;;37.17;21.15;;;;;;;;;;5097511;27;20543;-83
2022/12/19 08:26:07;;;;;;;38.72;22.00;;;;;;;;;;5085076;27;20419;-83
2022/12/19 08:28:37;;;;;;;36.42;20.40;;;;;;;;;;5110901;27;20414;-83
2022/12/19 08:31:07;;;;;;;39.28;22.27;;;;;;;;;;5114463;27;20421;-83
2022/12/19 08:33:34;;;;;;;43.63;22.52;;;;;;;;;;5114128;27;20479;-83
2022/12/19 08:36:22;;;;;;;90.70;26.83;;;;;;;;;;5083775;27;20375;-82
2022/12/19 08:38:48;;;;;;;33.42;22.05;;;;;;;;;;5083908;28;20427;-83
2022/12/19 08:41:15;;;;;;;34.33;21.65;;;;;;;;;;5098687;28;20462;-83
2022/12/19 08:43:41;;;;;;;34.15;21.73;;;;;;;;;;5099546;28;20417;-83
2022/12/19 08:46:08;;;;;;;32.38;21.95;;;;;;;;;;5081019;28;20418;-83
2022/12/19 08:48:34;;;;;;;115.80;26.30;;;;;;;;;;5070847;28;20413;-82
2022/12/19 08:51:02;;;;;;;34.63;21.10;;;;;;;;;;5068959;28;20415;-82
2022/12/19 08:53:29;;;;;;;27.13;18.98;;;;;;;;;;5087490;28;20415;-82
2022/12/19 08:55:59;;;;;;;29.40;19.67;;;;;;;;;;5062413;28;20423;-82
2022/12/19 08:58:26;;;;;;;29.27;18.73;;;;;;;;;;5067227;28;20514;-83
2022/12/19 09:00:52;;;;;;;46.10;22.13;;;;;;;;;;5076124;28;20423;-82
2022/12/19 09:03:19;;;;;;;113.77;25.53;;;;;;;;;;5084100;28;20454;-82
2022/12/19 09:05:46;;;;;;;28.20;19.80;;;;;;;;;;5097602;28;20998;-83
2022/12/19 09:08:12;;;;;;;30.65;19.88;;;;;;;;;;5071122;28;20655;-83
2022/12/19 09:10:39;;;;;;;28.65;20.50;;;;;;;;;;5080975;28;20428;-83
2022/12/19 09:13:05;;;;;;;51.92;22.48;;;;;;;;;;5076548;28;20424;-83
2022/12/19 09:15:31;;;;;;;34.30;21.05;;;;;;;;;;5085641;28;20483;-83
2022/12/19 09:17:57;;;;;;;32.90;20.52;;;;;;;;;;5069148;28;20419;-82
2022/12/19 09:20:23;;;;;;;31.50;21.00;;;;;;;;;;5098069;28;20424;-84
2022/12/19 09:22:49;;;;;;;32.70;21.58;;;;;;;;;;5075231;28;20760;-83
2022/12/19 09:25:15;;;;;;;32.97;20.88;;;;;;;;;;5073027;28;20927;-82
2022/12/19 09:27:41;;;;;;;93.55;25.60;;;;;;;;;;5066781;28;20408;-83
2022/12/19 09:30:08;;;;;;;37.00;23.27;;;;;;;;;;5053878;28;20971;-82
2022/12/19 09:32:34;;;;;;;33.83;21.33;;;;;;;;;;5081514;28;20459;-81
2022/12/19 09:35:00;;;;;;;36.33;23.15;;;;;;;;;;5083813;28;20435;-81
2022/12/19 09:37:26;;;;;;;34.08;22.10;;;;;;;;;;5080397;28;20423;-82
2022/12/19 09:39:52;;;;;;;30.37;21.13;;;;;;;;;;5054866;28;20412;-81
2022/12/19 09:42:35;;;;;;;30.67;22.45;;;;;;;;;;5080068;28;20415;-80
2022/12/19 09:45:32;;;;;;;33.78;21.55;;;6.80;99.90;;;;;;5077040;28;20525;-80
2022/12/19 09:47:58;;;;;;;31.05;21.42;;;;;;;;;;5062307;28;20927;-81
2022/12/19 09:50:43;;;;;;;32.25;21.20;;;;;;;;;;5063324;28;20432;-81
2022/12/19 09:53:18;;;;;;;42.22;22.95;;;;;;;;;;5062107;28;20456;-80
2022/12/19 09:55:46;;;;;;;31.60;20.95;;;;;;;;;;5071084;28;20503;-81
2022/12/19 09:58:31;;;;;;;30.92;22.02;;;;;;;;;;5042133;28;20414;-81
2022/12/19 10:00:59;;;;;;;30.40;21.20;;;;;;;;;;5060346;28;20421;-82
2022/12/19 10:03:28;;;;;;;31.55;21.38;;;;;;;;;;5068404;28;20763;-81
2022/12/19 10:06:12;;;;;;;30.90;21.17;;;;;;;;;;5058716;28;20421;-84
2022/12/19 10:08:39;;;;;;;34.57;22.63;;;;;;;;;;5068694;28;20425;-81
2022/12/19 10:11:10;;;;;;;57.20;22.73;;;;;;;;;;5055012;28;20427;-82
2022/12/19 10:13:48;;;;;;;31.40;21.13;;;;;;;;;;5071701;28;20502;-82
2022/12/19 10:16:19;;;;;;;27.88;20.83;;;;;;;;;;5067367;28;20460;-81
2022/12/19 10:18:45;;;;;;;29.63;19.77;;;;;;;;;;5060450;28;20423;-82
2022/12/19 10:21:17;;;;;;;34.70;20.90;;;;;;;;;;5061708;28;20425;-83
2022/12/19 10:23:49;;;;;;;137.40;26.83;;;;;;;;;;5061392;28;20452;-83
2022/12/19 10:26:20;;;;;;;24.60;19.23;;;;;;;;;;5052324;28;20504;-82
2022/12/19 10:29:19;;;;;;;26.77;19.27;;;7.30;99.90;;;;;;5064560;28;20987;-82
2022/12/19 10:31:51;;;;;;;40.88;21.05;;;;;;;;;;5052254;28;20431;-81
2022/12/19 10:34:19;;;;;;;35.00;19.90;;;;;;;;;;5063341;28;20456;-83
2022/12/19 10:36:49;;;;;;;26.92;18.77;;;;;;;;;;5068017;28;20846;-82
2022/12/19 10:39:35;;;;;;;26.70;18.95;;;;;;;;;;5065578;28;20416;-81
2022/12/19 10:42:11;;;;;;;28.15;18.13;;;;;;;;;;5069910;28;20419;-82
2022/12/19 10:44:38;;;;;;;90.27;23.40;;;;;;;;;;5070037;28;20771;-82
2022/12/19 10:47:04;;;;;;;24.77;17.40;;;;;;;;;;5069318;28;20420;-81
2022/12/19 10:49:30;;;;;;;24.58;17.20;;;;;;;;;;5070275;28;20462;-81
2022/12/19 10:51:58;;;;;;;23.73;16.75;;;;;;;;;;5066482;28;20422;-82
2022/12/19 10:54:44;;;;;;;33.10;18.08;;;;;;;;;;5071074;28;20416;-82
2022/12/19 10:57:18;;;;;;;23.38;17.00;;;;;;;;;;5043595;28;20524;-81
2022/12/19 10:59:59;;;;;;;22.27;16.08;;;;;;;;;;5058042;28;20454;-81
2022/12/19 11:02:38;;;;;;;21.70;15.00;;;;;;;;;;5041293;28;20438;-81
2022/12/19 11:05:22;;;;;;;21.73;15.23;;;;;;;;;;5052631;28;20411;-83
2022/12/19 11:08:10;;;;;;;28.83;17.23;;;;;;;;;;5061913;28;20419;-81
2022/12/19 11:10:36;;;;;;;19.38;14.50;;;;;;;;;;5065718;28;20425;-81
2022/12/19 11:13:15;;;;;;;20.40;14.55;;;;;;;;;;5059834;28;20423;-82
2022/12/19 11:15:46;;;;;;;18.88;14.30;;;;;;;;;;5060308;28;20766;-82
2022/12/19 11:18:13;;;;;;;16.98;13.10;;;;;;;;;;5057015;28;20512;-81
2022/12/19 11:20:39;;;;;;;18.55;13.98;;;;;;;;;;5066649;28;20911;-81
2022/12/19 11:23:11;;;;;;;16.73;13.40;;;;;;;;;;5047810;28;20527;-82
2022/12/19 11:25:41;;;;;;;18.42;13.20;;;;;;;;;;5062779;28;20412;-82
2022/12/19 11:28:17;;;;;;;18.17;12.90;;;;;;;;;;5054069;28;20431;-82
2022/12/19 11:30:43;;;;;;;20.52;14.32;;;;;;;;;;5056780;28;20427;-83
2022/12/19 11:33:09;;;;;;;16.88;13.02;;;;;;;;;;5069733;28;20935;-82
2022/12/19 11:35:45;;;;;;;17.88;13.40;;;;;;;;;;5067608;28;20867;-82
2022/12/19 11:38:14;;;;;;;17.30;12.20;;;;;;;;;;5047881;28;20505;-83
2022/12/19 11:40:54;;;;;;;17.25;13.20;;;;;;;;;;5061810;28;20449;-83
2022/12/19 11:43:26;;;;;;;18.45;13.38;;;;;;;;;;5059978;28;20463;-82
2022/12/19 11:46:07;;;;;;;17.88;13.10;;;;;;;;;;5058282;28;20423;-83
2022/12/19 11:48:36;;;;;;;19.38;13.45;;;;;;;;;;5071018;28;20465;-82
2022/12/19 11:51:13;;;;;;;18.90;13.70;;;;;;;;;;5062736;28;20505;-82
2022/12/19 11:53:58;;;;;;;15.68;12.00;;;8.60;99.90;;;;;;5068784;28;20429;-82
2022/12/19 11:56:26;;;;;;;17.47;12.73;;;;;;;;;;5065250;28;20446;-83
2022/12/19 11:59:07;;;;;;;17.25;12.30;;;;;;;;;;5055413;28;20797;-82
2022/12/19 12:01:42;;;;;;;15.77;12.18;;;;;;;;;;5055341;28;20427;-83
2022/12/19 12:04:17;;;;;;;15.75;11.38;;;;;;;;;;5035059;28;20471;-83
2022/12/19 12:06:51;;;;;;;18.38;12.55;;;;;;;;;;5067812;28;20428;-84
2022/12/19 12:09:17;;;;;;;16.75;12.07;;;;;;;;;;5054541;28;20423;-83
2022/12/19 12:11:56;;;;;;;15.77;11.52;;;;;;;;;;5070959;28;20448;-85
2022/12/19 12:14:28;;;;;;;15.63;11.90;;;;;;;;;;5058295;28;20511;-85
2022/12/19 12:17:02;;;;;;;14.43;12.13;;;;;;;;;;5056254;28;20436;-83
2022/12/19 12:19:40;;;;;;;17.53;12.47;;;;;;;;;;5052857;28;20429;-83
2022/12/19 12:22:25;;;;;;;15.82;12.68;;;;;;;;;;5051044;28;20411;-81
2022/12/19 12:25:12;;;;;;;17.30;12.70;;;8.10;99.90;;;;;;5063926;28;20420;-81
2022/12/19 12:27:41;;;;;;;25.70;13.40;;;;;;;;;;5057711;28;20419;-82
2022/12/19 12:30:12;;;;;;;29.03;13.77;;;;;;;;;;5046283;28;20448;-83
2022/12/19 12:32:53;;;;;;;17.92;12.93;;;;;;;;;;5053012;28;20449;-81
2022/12/19 12:35:26;;;;;;;20.55;12.18;;;;;;;;;;5067606;28;20428;-74
2022/12/19 12:37:52;;;;;;;23.48;12.20;;;;;;;;;;5051808;28;21086;-73
2022/12/19 12:40:30;;;;;;;20.83;12.30;;;;;;;;;;5065313;28;20473;-74
2022/12/19 12:42:56;;;;;;;15.93;12.13;;;;;;;;;;5055821;28;20500;-74
2022/12/19 12:45:25;;;;;;;15.50;11.02;;;;;;;;;;5046889;28;20469;-73
2022/12/19 12:47:52;;;;;;;18.65;12.88;;;;;;;;;;5067813;28;20743;-73
2022/12/19 12:50:20;;;;;;;17.60;11.85;;;;;;;;;;5069289;28;20422;-74
2022/12/19 12:52:49;;;;;;;22.75;13.18;;;;;;;;;;5054388;28;20421;-73
2022/12/19 12:55:26;;;;;;;34.55;13.23;;;;;;;;;;5051218;28;20430;-73
2022/12/19 12:58:31;;;;;;;16.97;11.13;;;;;;;;;;5148983;27;20365;-71
2022/12/19 13:01:10;;;;;;;14.90;10.85;;;;;;;;;;5090508;27;20415;-72
2022/12/19 13:03:36;;;;;;;13.90;10.68;;;;;;;;;;5127334;27;20434;-72
2022/12/19 13:06:07;;;;;;;17.85;12.18;;;;;;;;;;5110576;27;20817;-72
2022/12/19 13:08:45;;;;;;;37.65;13.77;;;;;;;;;;5149149;27;20421;-73
2022/12/19 13:14:03;;;;;;;17.33;11.40;;;;;;;;;;5149769;27;20949;-74
2022/12/19 13:16:44;;;;;;;17.70;12.60;;;;;;;;;;5109680;27;20424;-74
2022/12/19 13:19:16;;;;;;;15.45;11.68;;;;;;;;;;5121756;27;20421;-74
2022/12/19 13:22:01;;;;;;;17.35;12.45;;;;;;;;;;5123298;27;20472;-74
2022/12/19 13:24:37;;;;;;;16.90;11.83;;;;;;;;;;5127550;28;20490;-74
2022/12/19 13:27:03;;;;;;;17.47;12.40;;;;;;;;;;5130541;27;20426;-74
2022/12/19 13:29:33;;;;;;;16.73;12.10;;;;;;;;;;5125127;27;20458;-74
2022/12/19 13:32:11;;;;;;;16.70;12.85;;;;;;;;;;5106026;27;20496;-74
2022/12/19 13:34:38;;;;;;;19.27;13.75;;;;;;;;;;5127679;27;20423;-75
2022/12/19 13:37:19;;;;;;;18.27;13.90;;;;;;;;;;5121784;27;20423;-75
2022/12/19 13:39:51;;;;;;;17.60;13.65;;;;;;;;;;5105961;27;20480;-75
2022/12/19 13:45:12;;;;;;;23.08;15.07;;;;;;;;;;5114818;27;20417;-74
2022/12/19 13:47:42;;;;;;;20.97;14.37;;;;;;;;;;5117955;27;20443;-73
2022/12/19 13:50:26;;;;;;;19.63;14.95;;;;;;;;;;5106118;28;20423;-73
2022/12/19 13:52:52;;;;;;;19.50;15.05;;;;;;;;;;5124006;27;20489;-74
2022/12/19 13:55:19;;;;;;;18.20;15.07;;;;;;;;;;5126934;27;20809;-74
2022/12/19 13:57:51;;;;;;;20.55;14.77;;;;;;;;;;5127181;27;20428;-74
2022/12/19 14:00:19;;;;;;;18.13;14.57;;;;;;;;;;5126633;27;20396;-73
2022/12/19 14:02:50;;;;;;;18.77;14.45;;;;;;;;;;5121098;27;20423;-74
2022/12/19 14:05:26;;;;;;;18.10;13.95;;;;;;;;;;5126841;28;20392;-75
2022/12/19 14:07:52;;;;;;;19.23;13.95;;;;;;;;;;5116211;27;20909;-75
2022/12/19 14:10:21;;;;;;;16.20;12.68;;;;;;;;;;5097651;27;20428;-74
2022/12/19 14:15:34;;;;;;;14.63;12.10;;;;;;;;;;5102651;27;20403;-75
2022/12/19 14:18:01;;;;;;;15.38;11.68;;;;;;;;;;5125338;27;20446;-75
2022/12/19 14:20:29;;;;;;;15.95;11.75;;;;;;;;;;5098295;27;20408;-75
2022/12/19 14:22:56;;;;;;;15.38;11.57;;;;;;;;;;5093975;28;20459;-74
2022/12/19 14:25:23;;;;;;;14.63;11.23;;;;;;;;;;5106761;27;20902;-74
2022/12/19 14:27:55;;;;;;;12.85;10.70;;;;;;;;;;5113829;27;20485;-74
2022/12/19 14:30:24;;;;;;;13.15;9.77;;;;;;;;;;5105142;27;20406;-74
2022/12/19 14:32:52;;;;;;;12.73;10.10;;;;;;;;;;5109739;27;20911;-74
2022/12/19 14:35:22;;;;;;;13.68;9.48;;;;;;;;;;5095578;28;20457;-74
2022/12/19 14:37:49;;;;;;;13.98;9.48;;;;;;;;;;5093416;28;20457;-75